createdAt,value
2023-02-22T00:02:11.300Z,-1.10
2023-02-22T00:04:39.925Z,-1.10
2023-02-22T00:07:07.944Z,-0.90
2023-02-22T00:09:35.042Z,-0.80
2023-02-22T00:12:03.529Z,-0.70
2023-02-22T00:14:30.600Z,-0.80
2023-02-22T00:17:00.057Z,-0.70
2023-02-22T00:19:30.916Z,-0.80
2023-02-22T00:21:58.464Z,-0.90
2023-02-22T00:24:26.856Z,-1.10
2023-02-22T00:26:55.924Z,-1.10
2023-02-22T00:29:25.987Z,-1.10
2023-02-22T00:31:55.463Z,-1.10
2023-02-22T00:34:24.463Z,-1.10
2023-02-22T00:36:51.913Z,-1.00
2023-02-22T00:39:19.302Z,-1.00
2023-02-22T00:41:46.344Z,-1.00
2023-02-22T00:44:13.678Z,-1.10
2023-02-22T00:46:40.974Z,-1.00
2023-02-22T00:49:08.216Z,-1.00
2023-02-22T00:51:37.391Z,-1.10
2023-02-22T00:54:06.749Z,-1.20
2023-02-22T00:56:37.720Z,-1.20
2023-02-22T00:59:05.129Z,-1.30
2023-02-22T01:01:32.403Z,-1.10
2023-02-22T01:04:01.003Z,-1.30
2023-02-22T01:06:29.598Z,-1.30
2023-02-22T01:09:02.649Z,-1.20
2023-02-22T01:11:30.977Z,-1.10
2023-02-22T01:13:58.010Z,-1.20
2023-02-22T01:16:25.190Z,-1.10
2023-02-22T01:18:52.653Z,-1.00
2023-02-22T01:21:23.104Z,-0.90
2023-02-22T01:23:50.021Z,-0.70
2023-02-22T01:26:21.711Z,-0.60
2023-02-22T01:28:48.926Z,-0.60
2023-02-22T01:31:16.343Z,-0.60
2023-02-22T01:33:44.671Z,-0.70
2023-02-22T01:36:11.903Z,-0.70
2023-02-22T01:38:41.006Z,-0.80
2023-02-22T01:41:08.546Z,-0.80
2023-02-22T01:43:40.062Z,-0.90
2023-02-22T01:46:23.645Z,-0.80
2023-02-22T01:48:56.405Z,-0.80
2023-02-22T01:51:38.019Z,-0.80
2023-02-22T01:54:42.552Z,-0.80
2023-02-22T01:57:22.095Z,-0.70
2023-02-22T01:59:55.081Z,-0.70
2023-02-22T02:02:25.257Z,-0.70
2023-02-22T02:04:56.692Z,-0.70
2023-02-22T02:07:24.921Z,-0.60
2023-02-22T02:10:00.627Z,-0.60
2023-02-22T02:12:31.013Z,-0.60
2023-02-22T02:15:32.390Z,-0.60
2023-02-22T02:18:04.153Z,-0.70
2023-02-22T02:20:51.957Z,-0.70
2023-02-22T02:23:47.896Z,-0.80
2023-02-22T02:26:52.794Z,-0.80
2023-02-22T02:29:28.509Z,-0.80
2023-02-22T02:32:01.502Z,-0.90
2023-02-22T02:34:41.340Z,-0.90
2023-02-22T02:37:22.063Z,-1.00
2023-02-22T02:40:18.317Z,-1.20
2023-02-22T02:42:55.456Z,-1.40
2023-02-22T02:45:31.236Z,-1.30
2023-02-22T02:48:00.154Z,-1.10
2023-02-22T02:50:32.256Z,-1.00
2023-02-22T02:53:04.649Z,-1.00
2023-02-22T02:55:32.972Z,-1.00
2023-02-22T02:58:00.696Z,-1.00
2023-02-22T03:00:39.631Z,-1.00
2023-02-22T03:03:18.361Z,-1.10
2023-02-22T03:06:02.233Z,-1.10
2023-02-22T03:08:53.435Z,-1.10
2023-02-22T03:11:28.679Z,-1.20
2023-02-22T03:14:12.534Z,-1.20
2023-02-22T03:17:19.379Z,-1.30
2023-02-22T03:20:05.107Z,-1.40
2023-02-22T03:22:50.902Z,-1.50
2023-02-22T03:25:28.810Z,-1.50
2023-02-22T03:28:07.489Z,-1.40
2023-02-22T03:30:42.845Z,-1.40
2023-02-22T03:33:21.728Z,-1.40
2023-02-22T03:36:02.085Z,-1.40
2023-02-22T03:38:34.030Z,-1.50
2023-02-22T03:41:04.258Z,-1.50
2023-02-22T03:43:40.984Z,-1.50
2023-02-22T03:46:17.498Z,-1.40
2023-02-22T03:49:00.405Z,-1.30
2023-02-22T03:51:33.110Z,-1.40
2023-02-22T03:54:05.755Z,-1.30
2023-02-22T03:57:01.110Z,-1.50
2023-02-22T03:59:32.659Z,-1.50
2023-02-22T04:02:00.003Z,-1.50
2023-02-22T04:04:29.503Z,-1.60
2023-02-22T04:06:57.017Z,-1.70
2023-02-22T04:09:24.830Z,-1.70
2023-02-22T04:11:54.165Z,-1.70
2023-02-22T04:14:23.813Z,-1.70
2023-02-22T04:16:51.136Z,-1.80
2023-02-22T04:19:21.084Z,-1.90
2023-02-22T04:21:49.753Z,-1.90
2023-02-22T04:24:22.494Z,-1.90
2023-02-22T04:26:51.113Z,-2.00
2023-02-22T04:29:24.349Z,-2.00
2023-02-22T04:31:51.807Z,-2.00
2023-02-22T04:34:18.873Z,-2.00
2023-02-22T04:36:45.734Z,-2.00
2023-02-22T04:39:13.145Z,-1.90
2023-02-22T04:41:40.780Z,-1.90
2023-02-22T04:44:10.608Z,-1.90
2023-02-22T04:46:37.939Z,-1.80
2023-02-22T04:49:07.424Z,-1.80
2023-02-22T04:51:38.466Z,-1.70
2023-02-22T04:54:11.054Z,-1.80
2023-02-22T04:56:44.650Z,-1.70
2023-02-22T04:59:14.764Z,-1.80
2023-02-22T05:01:45.350Z,-1.80
2023-02-22T05:04:12.301Z,-1.80
2023-02-22T05:06:39.449Z,-1.70
2023-02-22T05:09:09.119Z,-1.70
2023-02-22T05:11:36.824Z,-1.70
2023-02-22T05:14:04.135Z,-1.80
2023-02-22T05:16:31.432Z,-1.70
2023-02-22T05:19:00.060Z,-1.60
2023-02-22T05:21:27.461Z,-1.70
2023-02-22T05:23:57.220Z,-1.60
2023-02-22T05:26:24.302Z,-1.70
2023-02-22T05:28:54.940Z,-1.60
2023-02-22T05:31:22.394Z,-1.60
2023-02-22T05:33:50.175Z,-1.60
2023-02-22T05:36:19.668Z,-1.60
2023-02-22T05:38:46.570Z,-1.60
2023-02-22T05:41:13.737Z,-1.60
2023-02-22T05:43:41.110Z,-1.60
2023-02-22T05:46:08.810Z,-1.70
2023-02-22T05:48:37.105Z,-1.60
2023-02-22T05:51:07.394Z,-1.70
2023-02-22T05:53:34.597Z,-1.70
2023-02-22T05:56:02.291Z,-1.70
2023-02-22T05:58:29.719Z,-1.70
2023-02-22T06:00:57.083Z,-1.70
2023-02-22T06:03:24.327Z,-1.70
2023-02-22T06:05:52.049Z,-1.70
2023-02-22T06:08:19.746Z,-1.60
2023-02-22T06:10:46.663Z,-1.50
2023-02-22T06:13:14.551Z,-1.60
2023-02-22T06:15:44.625Z,-1.40
2023-02-22T06:18:12.276Z,-1.40
2023-02-22T06:20:39.493Z,-1.40
2023-02-22T06:23:06.575Z,-1.40
2023-02-22T06:25:33.765Z,-1.40
2023-02-22T06:28:01.517Z,-1.30
2023-02-22T06:30:31.447Z,-1.40
2023-02-22T06:33:04.633Z,-1.30
2023-02-22T06:35:35.542Z,-1.30
2023-02-22T06:38:02.715Z,-1.30
2023-02-22T06:40:46.160Z,-1.30
2023-02-22T06:43:14.534Z,-1.40
2023-02-22T06:45:42.870Z,-1.40
2023-02-22T06:48:13.589Z,-1.30
2023-02-22T06:50:41.074Z,-1.30
2023-02-22T06:53:09.647Z,-1.30
2023-02-22T06:55:36.569Z,-1.30
2023-02-22T06:58:05.120Z,-1.20
2023-02-22T07:00:36.838Z,-1.20
2023-02-22T07:03:04.987Z,-1.20
2023-02-22T07:05:32.397Z,-1.10
2023-02-22T07:08:05.551Z,-1.00
2023-02-22T07:10:34.466Z,-1.00
2023-02-22T07:13:03.373Z,-0.90
2023-02-22T07:15:33.108Z,-1.00
2023-02-22T07:18:03.304Z,-0.90
2023-02-22T07:20:32.046Z,-0.80
2023-02-22T07:23:00.706Z,-0.80
2023-02-22T07:25:28.063Z,-0.70
2023-02-22T07:27:55.095Z,-0.70
2023-02-22T07:30:31.451Z,-0.60
2023-02-22T07:33:02.776Z,-0.50
2023-02-22T07:35:39.030Z,-0.50
2023-02-22T07:38:10.849Z,-0.40
2023-02-22T07:40:39.790Z,-0.40
2023-02-22T07:43:19.882Z,-0.30
2023-02-22T07:45:49.228Z,-0.30
2023-02-22T07:48:18.970Z,-0.20
2023-02-22T07:50:46.601Z,-0.10
2023-02-22T07:53:18.448Z,0.00
2023-02-22T07:55:45.883Z,0.00
2023-02-22T07:58:17.914Z,0.00
2023-02-22T08:00:45.188Z,0.30
2023-02-22T08:03:19.365Z,0.30
2023-02-22T08:08:31.181Z,0.60
2023-02-22T08:10:59.814Z,0.60
2023-02-22T08:13:26.986Z,0.70
2023-02-22T08:15:54.374Z,0.80
2023-02-22T08:18:23.912Z,0.80
2023-02-22T08:20:54.336Z,0.90
2023-02-22T08:23:25.498Z,1.00
2023-02-22T08:25:52.969Z,1.20
2023-02-22T08:28:23.876Z,1.20
2023-02-22T08:30:51.857Z,1.30
2023-02-22T08:33:22.100Z,1.40
2023-02-22T08:35:50.159Z,1.40
2023-02-22T08:38:24.934Z,1.40
2023-02-22T08:40:53.590Z,1.70
2023-02-22T08:43:23.490Z,1.50
2023-02-22T08:45:52.631Z,1.60
2023-02-22T08:48:22.419Z,1.50
2023-02-22T08:50:52.717Z,1.50
2023-02-22T08:53:19.663Z,1.40
2023-02-22T08:55:47.082Z,1.30
2023-02-22T08:58:14.710Z,1.40
2023-02-22T09:00:45.009Z,1.70
2023-02-22T09:03:14.134Z,2.00
2023-02-22T09:05:43.152Z,2.00
2023-02-22T09:08:10.121Z,2.00
2023-02-22T09:10:37.351Z,2.10
2023-02-22T09:13:04.807Z,2.30
2023-02-22T09:15:33.293Z,2.60
2023-02-22T09:18:00.992Z,2.80
2023-02-22T09:20:29.144Z,3.10
2023-02-22T09:22:59.815Z,3.50
2023-02-22T09:25:27.522Z,3.80
2023-02-22T09:27:56.821Z,4.00
2023-02-22T09:30:33.244Z,4.40
2023-02-22T09:33:12.358Z,4.70
2023-02-22T09:35:46.758Z,5.20
2023-02-22T09:38:19.664Z,5.80
2023-02-22T09:40:50.805Z,6.00
2023-02-22T09:43:41.043Z,6.20
2023-02-22T09:46:35.300Z,6.50
2023-02-22T09:49:28.483Z,6.30
2023-02-22T09:52:12.299Z,6.40
2023-02-22T09:54:52.560Z,6.30
2023-02-22T09:57:42.444Z,6.20
2023-02-22T10:00:19.014Z,6.50
2023-02-22T10:03:15.482Z,6.80
2023-02-22T10:05:46.896Z,6.60
2023-02-22T10:08:19.252Z,6.90
2023-02-22T10:10:52.874Z,7.00
2023-02-22T10:13:39.862Z,7.10
2023-02-22T10:16:11.869Z,7.10
2023-02-22T10:18:46.567Z,7.10
2023-02-22T10:21:39.961Z,6.70
2023-02-22T10:24:26.623Z,6.90
2023-02-22T10:26:58.720Z,7.20
2023-02-22T10:29:40.671Z,7.30
2023-02-22T10:32:16.025Z,7.20
2023-02-22T10:34:54.121Z,7.00
2023-02-22T10:37:27.563Z,6.80
2023-02-22T10:40:00.462Z,6.50
2023-02-22T10:42:29.710Z,6.20
2023-02-22T10:44:57.051Z,6.20
2023-02-22T10:47:24.902Z,6.20
2023-02-22T10:49:56.729Z,6.50
2023-02-22T10:52:30.508Z,6.90
2023-02-22T10:55:14.324Z,7.40
2023-02-22T10:57:49.961Z,8.00
2023-02-22T11:00:31.675Z,8.40
2023-02-22T11:03:02.686Z,8.70
2023-02-22T11:05:29.807Z,8.80
2023-02-22T11:08:17.640Z,8.80
2023-02-22T11:10:44.986Z,8.90
2023-02-22T11:13:33.548Z,9.00
2023-02-22T11:16:28.156Z,9.00
2023-02-22T11:19:05.426Z,8.90
2023-02-22T11:21:32.990Z,9.00
2023-02-22T11:24:08.710Z,9.30
2023-02-22T11:27:00.864Z,9.50
2023-02-22T11:29:37.512Z,9.50
2023-02-22T11:32:30.945Z,9.40
2023-02-22T11:35:29.799Z,9.20
2023-02-22T11:38:21.473Z,8.80
2023-02-22T11:41:15.037Z,8.60
2023-02-22T11:43:47.784Z,8.30
2023-02-22T11:46:29.083Z,8.30
2023-02-22T11:49:06.740Z,8.60
2023-02-22T11:51:54.854Z,8.60
2023-02-22T11:54:47.089Z,8.40
2023-02-22T11:57:22.950Z,8.80
2023-02-22T12:00:16.348Z,9.40
2023-02-22T12:02:56.773Z,9.50
2023-02-22T12:05:59.602Z,9.30
2023-02-22T12:09:07.913Z,9.20
2023-02-22T12:12:08.488Z,9.10
2023-02-22T12:14:58.327Z,8.90
2023-02-22T12:17:54.292Z,9.00
2023-02-22T12:20:52.508Z,9.00
2023-02-22T12:23:47.523Z,9.10
2023-02-22T12:26:21.079Z,9.10
2023-02-22T12:29:15.118Z,9.10
2023-02-22T12:31:45.849Z,9.30
2023-02-22T12:34:43.687Z,9.50
2023-02-22T12:37:17.671Z,9.40
2023-02-22T12:40:13.663Z,9.20
2023-02-22T12:42:56.072Z,8.90
2023-02-22T12:45:32.309Z,9.10
2023-02-22T12:48:04.350Z,9.40
2023-02-22T12:50:34.567Z,9.60
2023-02-22T12:53:04.314Z,9.60
2023-02-22T12:55:46.196Z,9.80
2023-02-22T12:58:34.987Z,10.10
2023-02-22T13:01:12.299Z,10.30
2023-02-22T13:03:45.171Z,10.30
2023-02-22T13:06:36.791Z,10.20
2023-02-22T13:09:24.774Z,10.10
2023-02-22T13:11:54.918Z,10.10
2023-02-22T13:14:37.320Z,10.10
2023-02-22T13:17:40.224Z,10.10
2023-02-22T13:20:25.919Z,9.70
2023-02-22T13:23:00.527Z,9.50
2023-02-22T13:25:39.587Z,9.70
2023-02-22T13:28:13.936Z,9.60
2023-02-22T13:31:15.544Z,9.60
2023-02-22T13:33:56.852Z,9.60
2023-02-22T13:36:51.051Z,9.70
2023-02-22T13:39:36.870Z,9.90
2023-02-22T13:42:35.125Z,9.80
2023-02-22T13:45:29.848Z,9.70
2023-02-22T13:48:15.827Z,9.80
2023-02-22T13:51:18.714Z,9.90
2023-02-22T13:54:08.608Z,10.10
2023-02-22T13:56:43.009Z,10.10
2023-02-22T13:59:37.660Z,10.00
2023-02-22T14:02:08.014Z,10.00
2023-02-22T14:04:43.112Z,9.80
2023-02-22T14:07:19.086Z,9.90
2023-02-22T14:10:05.198Z,10.00
2023-02-22T14:12:38.758Z,10.00
2023-02-22T14:15:28.722Z,10.10
2023-02-22T14:18:02.741Z,10.10
2023-02-22T14:20:38.535Z,10.10
2023-02-22T14:23:24.140Z,10.00
2023-02-22T14:25:57.169Z,10.00
2023-02-22T14:28:54.728Z,9.80
2023-02-22T14:31:37.004Z,9.90
2023-02-22T14:34:22.652Z,9.80
2023-02-22T14:39:46.285Z,9.90
2023-02-22T14:42:33.610Z,9.90
2023-02-22T14:45:09.742Z,10.00
2023-02-22T14:47:43.998Z,9.90
2023-02-22T14:50:26.950Z,9.70
2023-02-22T14:53:13.818Z,9.60
2023-02-22T14:56:07.380Z,9.40
2023-02-22T14:58:40.599Z,9.30
2023-02-22T15:01:31.203Z,9.10
2023-02-22T15:04:32.122Z,9.20
2023-02-22T15:07:01.633Z,9.00
2023-02-22T15:09:34.877Z,9.00
2023-02-22T15:12:05.503Z,8.90
2023-02-22T15:14:38.069Z,8.90
2023-02-22T15:17:18.953Z,8.90
2023-02-22T15:19:48.624Z,8.90
2023-02-22T15:22:27.907Z,8.80
2023-02-22T15:25:00.503Z,8.80
2023-02-22T15:27:29.097Z,8.70
2023-02-22T15:30:04.665Z,8.60
2023-02-22T15:32:53.469Z,8.60
2023-02-22T15:35:29.914Z,8.60
2023-02-22T15:38:04.357Z,8.50
2023-02-22T15:40:37.284Z,8.50
2023-02-22T15:43:08.856Z,8.50
2023-02-22T15:45:43.454Z,8.60
2023-02-22T15:48:14.622Z,8.50
2023-02-22T15:51:04.784Z,8.50
2023-02-22T15:54:02.296Z,8.50
2023-02-22T15:56:31.867Z,8.50
2023-02-22T15:59:09.167Z,8.50
2023-02-22T16:01:43.192Z,8.40
2023-02-22T16:04:26.381Z,8.30
2023-02-22T16:07:04.719Z,8.30
2023-02-22T16:09:34.087Z,8.20
2023-02-22T16:12:10.871Z,8.20
2023-02-22T16:14:37.836Z,8.20
2023-02-22T16:18:01.517Z,8.10
2023-02-22T16:20:32.714Z,8.00
2023-02-22T16:23:00.518Z,8.00
2023-02-22T16:25:35.746Z,7.90
2023-02-22T16:28:32.783Z,7.60
2023-02-22T16:31:00.657Z,7.70
2023-02-22T16:33:34.184Z,7.40
2023-02-22T16:36:08.334Z,7.40
2023-02-22T16:38:38.471Z,7.20
2023-02-22T16:41:07.898Z,7.00
2023-02-22T16:43:37.974Z,6.90
2023-02-22T16:46:07.352Z,7.00
2023-02-22T16:48:39.061Z,6.80
2023-02-22T16:51:18.210Z,6.50
2023-02-22T16:53:48.611Z,6.40
2023-02-22T16:56:18.668Z,6.20
2023-02-22T16:58:49.902Z,6.00
2023-02-22T17:01:20.203Z,5.90
2023-02-22T17:03:48.324Z,5.60
2023-02-22T17:06:15.812Z,5.50
2023-02-22T17:08:44.334Z,5.50
2023-02-22T17:11:14.764Z,5.30
2023-02-22T17:13:42.034Z,5.30
2023-02-22T17:16:15.572Z,5.30
2023-02-22T17:18:43.118Z,5.40
2023-02-22T17:21:12.004Z,5.40
2023-02-22T17:23:40.926Z,5.30
2023-02-22T17:26:08.257Z,5.30
2023-02-22T17:28:36.258Z,5.20
2023-02-22T17:31:03.343Z,5.20
2023-02-22T17:33:37.261Z,5.20
2023-02-22T17:36:05.452Z,5.30
2023-02-22T17:38:32.524Z,5.20
2023-02-22T17:41:13.015Z,5.20
2023-02-22T17:43:40.228Z,5.20
2023-02-22T17:46:20.112Z,5.20
2023-02-22T17:48:51.081Z,5.10
2023-02-22T17:51:19.547Z,5.10
2023-02-22T17:54:04.511Z,5.10
2023-02-22T17:56:31.763Z,5.00
2023-02-22T17:58:59.112Z,5.10
2023-02-22T18:01:32.061Z,5.00
2023-02-22T18:04:01.224Z,5.00
2023-02-22T18:06:30.225Z,5.00
2023-02-22T18:08:59.307Z,5.00
2023-02-22T18:11:32.875Z,5.00
2023-02-22T18:14:02.541Z,5.20
2023-02-22T18:16:29.890Z,5.20
2023-02-22T18:18:57.289Z,5.10
2023-02-22T18:21:27.106Z,5.00
2023-02-22T18:23:54.970Z,5.00
2023-02-22T18:26:25.799Z,4.80
2023-02-22T18:28:56.620Z,4.70
2023-02-22T18:31:25.132Z,4.50
2023-02-22T18:33:55.141Z,4.60
2023-02-22T18:36:25.465Z,4.40
2023-02-22T18:38:53.852Z,4.50
2023-02-22T18:41:26.618Z,4.30
2023-02-22T18:43:55.471Z,4.40
2023-02-22T18:46:24.199Z,4.40
2023-02-22T18:48:54.112Z,4.30
2023-02-22T18:51:21.380Z,4.30
2023-02-22T18:53:50.278Z,4.20
2023-02-22T18:56:32.153Z,4.20
2023-02-22T18:59:02.381Z,4.30
2023-02-22T19:01:31.601Z,4.20
2023-02-22T19:04:00.432Z,4.30
2023-02-22T19:06:27.628Z,4.50
2023-02-22T19:08:58.495Z,4.60
2023-02-22T19:11:26.169Z,4.50
2023-02-22T19:13:58.020Z,4.40
2023-02-22T19:16:29.630Z,4.30
2023-02-22T19:18:58.913Z,4.30
2023-02-22T19:21:28.626Z,4.20
2023-02-22T19:24:01.201Z,4.10
2023-02-22T19:26:30.910Z,4.00
2023-02-22T19:29:01.032Z,4.00
2023-02-22T19:31:31.749Z,4.00
2023-02-22T19:34:11.484Z,3.90
2023-02-22T19:36:47.611Z,3.80
2023-02-22T19:39:19.824Z,3.80
2023-02-22T19:41:47.429Z,3.80
2023-02-22T19:44:17.433Z,3.70
2023-02-22T19:46:45.740Z,3.70
2023-02-22T19:49:14.011Z,3.60
2023-02-22T19:51:40.985Z,3.60
2023-02-22T19:54:13.158Z,3.50
2023-02-22T19:56:41.084Z,3.50
2023-02-22T19:59:13.669Z,3.50
2023-02-22T20:01:46.097Z,3.50
2023-02-22T20:04:21.601Z,3.50
2023-02-22T20:07:00.050Z,3.40
2023-02-22T20:09:37.358Z,3.30
2023-02-22T20:12:05.637Z,3.40
2023-02-22T20:14:35.591Z,3.30
2023-02-22T20:17:09.681Z,3.30
2023-02-22T20:19:40.663Z,3.30
2023-02-22T20:22:10.257Z,3.20
2023-02-22T20:24:38.264Z,3.20
2023-02-22T20:27:05.334Z,3.10
2023-02-22T20:29:33.369Z,3.10
2023-02-22T20:32:04.627Z,3.00
2023-02-22T20:34:33.493Z,3.20
2023-02-22T20:37:01.320Z,3.10
2023-02-22T20:39:29.172Z,3.10
2023-02-22T20:42:01.045Z,3.10
2023-02-22T20:44:28.319Z,3.00
2023-02-22T20:46:55.794Z,3.00
2023-02-22T20:49:25.968Z,3.00
2023-02-22T20:51:55.193Z,3.00
2023-02-22T20:54:23.132Z,3.00
2023-02-22T20:56:53.167Z,3.00
2023-02-22T20:59:22.689Z,2.90
2023-02-22T21:01:51.154Z,2.90
2023-02-22T21:04:18.318Z,2.90
2023-02-22T21:06:46.828Z,2.80
2023-02-22T21:09:19.889Z,2.80
2023-02-22T21:11:47.700Z,2.80
2023-02-22T21:14:24.314Z,2.80
2023-02-22T21:16:54.975Z,2.80
2023-02-22T21:19:28.419Z,2.90
2023-02-22T21:21:59.792Z,2.90
2023-02-22T21:24:30.868Z,2.90
2023-02-22T21:27:02.789Z,2.90
2023-02-22T21:29:34.506Z,3.00
2023-02-22T21:32:04.928Z,3.00
2023-02-22T21:34:32.372Z,2.90
2023-02-22T21:36:59.578Z,3.00
2023-02-22T21:39:28.887Z,2.90
2023-02-22T21:42:00.748Z,2.90
2023-02-22T21:44:28.480Z,2.90
2023-02-22T21:46:55.495Z,2.90
2023-02-22T21:49:25.516Z,2.70
2023-02-22T21:52:00.870Z,2.80
2023-02-22T21:54:30.910Z,2.90
2023-02-22T21:57:00.474Z,2.90
2023-02-22T21:59:28.000Z,2.80
2023-02-22T22:01:56.596Z,2.80
2023-02-22T22:04:27.840Z,2.90
2023-02-22T22:06:59.551Z,2.90
2023-02-22T22:09:33.490Z,3.00
2023-02-22T22:12:05.537Z,3.10
2023-02-22T22:14:38.458Z,3.10
2023-02-22T22:17:08.048Z,3.20
2023-02-22T22:19:41.756Z,3.20
2023-02-22T22:22:09.324Z,3.30
2023-02-22T22:24:37.326Z,3.40
2023-02-22T22:27:06.757Z,3.50
2023-02-22T22:29:35.194Z,3.40
2023-02-22T22:32:07.128Z,3.40
2023-02-22T22:34:38.153Z,3.50
2023-02-22T22:37:05.077Z,3.50
2023-02-22T22:39:32.398Z,3.50
2023-02-22T22:42:00.478Z,3.50
2023-02-22T22:44:33.028Z,3.50
2023-02-22T22:47:02.542Z,3.60
2023-02-22T22:49:31.701Z,3.50
2023-02-22T22:56:06.054Z,3.60
2023-02-22T22:59:39.901Z,3.50
2023-02-22T23:06:46.221Z,3.50
2023-02-22T23:17:52.558Z,3.50
2023-02-22T23:21:30.509Z,3.50
2023-02-22T23:25:08.543Z,3.60
2023-02-22T23:28:47.595Z,3.60
2023-02-22T23:32:25.412Z,3.70
2023-02-22T23:35:27.473Z,3.80
2023-02-22T23:39:31.883Z,3.90
2023-02-22T23:42:45.610Z,3.80
2023-02-22T23:46:27.003Z,3.90
2023-02-22T23:57:02.691Z,4.00
2023-02-22T23:59:33.737Z,4.00
